Tombstone, AZ

8:58 PM MST on August 29, 2014 (GMT -0700)
Bisbee Douglas International | Change Station
CLOSE
Current Station
Airport
Location: Douglas Bisbee,
Elevation: 4104 ft
Nearby Weather Stations

Elev 4104 ft 31.47 °N, 109.60 °W | Updated 1 hour ago

Clear
Clear
74 °F
Feels Like 74 °F
N
9
Wind Variable Wind from NW

Today
High -- | Low -- °F
--% Chance of Precip.
Yesterday
High -- | Low -- °F
Precip. -- in
5:54 AM 6:47 PM
Waxing Crescent, 18% visible
Pressure 29.81 in
Visibility 10.0 miles
Clouds Clear
Dew Point 49 °F
Humidity 41%
Rainfall 0.00 in
Snow Depth Not available.
UV 0 out of 12
Pollen 6.40 out of 12
Air Quality Not available.
Flu Activity Not available.
METAR KDUG 300256Z AUTO 32008KT 10SM CLR 23/09 A3000 RMK AO2 SLP094 T02330094 53006

More Conditions Fewer Conditions

Pressure 29.81 in
Visibility 10.0 miles
Clouds Clear
Dew Point 49 °F
Humidity 41%
Rainfall 0.00 in
Snow Depth Not available.
UV 0 out of 12
Pollen 6.40 out of 12
Air Quality Not available.
Flu Activity Not available.
METAR KDUG 300256Z AUTO 32008KT 10SM CLR 23/09 A3000 RMK AO2 SLP094 T02330094 53006

More Conditions Fewer Conditions

10-Day Weather Forecast

Almanac

Astronomy

Aug. 29, 2014 Rise Set
Actual Time 5:54 AM MST 6:47 PM MST
Civil Twilight 5:29 AM MST 7:12 PM MST
Nautical Twilight 4:59 AM MST 7:42 PM MST
Astronomical Twilight 4:29 AM MST 8:12 PM MST
Moon 9:30 AM MST (8/29) 9:05 PM MST (8/29)
Length of Visible Light 13h 43m
Length of Day
12h 53m
Tomorrow will be 1m 50s shorter.
Waxing Crescent, 18% of the Moon is Illuminated
Today
Waxing Crescent
Sep 2
First Quarter
Sep 8
Full
Sep 15
Last Quarter
Sep 24
New

Today's Extremes

State Highs State Lows

Community

WunderPhotos

Upload Photos

1,748,437 photos uploaded!

Nearby

Snow Depth

Station Depth Elevation
Beaver Head 24 in 7990 ft
Coronado Trail 4 in 8400 ft
Workman Creek 1 in 6900 ft
White Horse Lake 0 in 7180 ft
Snowslide Canyon 1 in 9730 ft

Earthquake Activity

City Distance Mag. Time & Date
No recent earthquake activity has been reported nearby.
Minimum magnitude displayed is 2.5.

Coastal Water Temperatures

Place Temperature
No Stations Reporting

Nearby Weather Stations